sensor_id;sensor_type;location;lat;lon;timestamp;pressure;altitude;pressure_sealevel;temperature;humidity
62402;BME280;48440;51.224;22.506;2023-02-16T00:01:29;100158.91;;;1.77;71.48
62402;BME280;48440;51.224;22.506;2023-02-16T00:03:55;100143.00;;;1.75;71.18
62402;BME280;48440;51.224;22.506;2023-02-16T00:06:22;100136.00;;;1.74;71.57
62402;BME280;48440;51.224;22.506;2023-02-16T00:08:50;100143.00;;;1.75;71.46
62402;BME280;48440;51.224;22.506;2023-02-16T00:11:30;100149.84;;;1.78;71.34
62402;BME280;48440;51.224;22.506;2023-02-16T00:14:16;100140.81;;;1.79;71.14
62402;BME280;48440;51.224;22.506;2023-02-16T00:16:41;100131.66;;;1.73;71.19
62402;BME280;48440;51.224;22.506;2023-02-16T00:19:23;100126.78;;;1.77;71.28
62402;BME280;48440;51.224;22.506;2023-02-16T00:21:51;100138.31;;;1.77;71.38
62402;BME280;48440;51.224;22.506;2023-02-16T00:24:17;100143.66;;;1.77;71.18
62402;BME280;48440;51.224;22.506;2023-02-16T00:26:43;100137.47;;;1.77;71.48
62402;BME280;48440;51.224;22.506;2023-02-16T00:29:25;100136.66;;;1.76;71.62
62402;BME280;48440;51.224;22.506;2023-02-16T00:31:52;100140.81;;;1.79;71.24
62402;BME280;48440;51.224;22.506;2023-02-16T00:34:31;100130.63;;;1.74;71.05
62402;BME280;48440;51.224;22.506;2023-02-16T00:36:59;100133.31;;;1.74;71.36
62402;BME280;48440;51.224;22.506;2023-02-16T00:39:26;100127.47;;;1.70;71.55
62402;BME280;48440;51.224;22.506;2023-02-16T00:41:55;100123.13;;;1.69;71.34
62402;BME280;48440;51.224;22.506;2023-02-16T00:44:43;100121.16;;;1.63;71.35
62402;BME280;48440;51.224;22.506;2023-02-16T00:47:32;100119.31;;;1.64;71.54
62402;BME280;48440;51.224;22.506;2023-02-16T00:50:02;100111.59;;;1.69;71.39
62402;BME280;48440;51.224;22.506;2023-02-16T00:52:35;100109.09;;;1.67;71.44
62402;BME280;48440;51.224;22.506;2023-02-16T00:55:04;100111.13;;;1.65;71.76
62402;BME280;48440;51.224;22.506;2023-02-16T00:57:33;100103.28;;;1.64;71.57
62402;BME280;48440;51.224;22.506;2023-02-16T01:02:37;100092.09;;;1.60;71.85
62402;BME280;48440;51.224;22.506;2023-02-16T01:05:03;100087.38;;;1.62;71.69
62402;BME280;48440;51.224;22.506;2023-02-16T01:07:28;100096.06;;;1.64;71.91
62402;BME280;48440;51.224;22.506;2023-02-16T01:10:12;100086.56;;;1.62;71.58
62402;BME280;48440;51.224;22.506;2023-02-16T01:12:57;100087.38;;;1.62;71.93
62402;BME280;48440;51.224;22.506;2023-02-16T01:15:24;100084.22;;;1.59;71.67
62402;BME280;48440;51.224;22.506;2023-02-16T01:17:50;100072.88;;;1.57;71.92
62402;BME280;48440;51.224;22.506;2023-02-16T01:20:19;100080.72;;;1.58;71.96
62402;BME280;48440;51.224;22.506;2023-02-16T01:22:44;100070.19;;;1.57;71.93
62402;BME280;48440;51.224;22.506;2023-02-16T01:25:10;100063.22;;;1.56;72.27
62402;BME280;48440;51.224;22.506;2023-02-16T01:27:37;100064.22;;;1.55;72.21
62402;BME280;48440;51.224;22.506;2023-02-16T01:30:05;100063.56;;;1.53;72.14
62402;BME280;48440;51.224;22.506;2023-02-16T01:32:31;100055.53;;;1.53;72.58
62402;BME280;48440;51.224;22.506;2023-02-16T01:34:57;100050.72;;;1.48;72.42
62402;BME280;48440;51.224;22.506;2023-02-16T01:37:22;100052.38;;;1.49;72.37
62402;BME280;48440;51.224;22.506;2023-02-16T01:39:49;100038.53;;;1.46;72.73
62402;BME280;48440;51.224;22.506;2023-02-16T01:45:19;100034.00;;;1.46;72.69
62402;BME280;48440;51.224;22.506;2023-02-16T01:47:50;100026.81;;;1.47;72.70
62402;BME280;48440;51.224;22.506;2023-02-16T01:50:23;100024.16;;;1.47;72.72
62402;BME280;48440;51.224;22.506;2023-02-16T02:03:29;100021.38;;;1.32;73.30
62402;BME280;48440;51.224;22.506;2023-02-16T02:06:17;100020.28;;;1.26;73.19
62402;BME280;48440;51.224;22.506;2023-02-16T02:08:56;100012.63;;;1.23;73.41
62402;BME280;48440;51.224;22.506;2023-02-16T02:11:32;100003.94;;;1.21;73.85
62402;BME280;48440;51.224;22.506;2023-02-16T02:14:30;100007.13;;;1.17;73.49
62402;BME280;48440;51.224;22.506;2023-02-16T02:17:09;100002.09;;;1.22;74.12
62402;BME280;48440;51.224;22.506;2023-02-16T02:23:12;100001.47;;;1.34;73.88
62402;BME280;48440;51.224;22.506;2023-02-16T02:31:27;99987.09;;;1.35;73.60
62402;BME280;48440;51.224;22.506;2023-02-16T02:36:50;99991.13;;;1.31;73.26
62402;BME280;48440;51.224;22.506;2023-02-16T02:39:57;99980.81;;;1.28;73.54
62402;BME280;48440;51.224;22.506;2023-02-16T02:45:23;99984.56;;;1.19;73.64
62402;BME280;48440;51.224;22.506;2023-02-16T02:47:51;99980.69;;;1.22;74.01
62402;BME280;48440;51.224;22.506;2023-02-16T02:53:03;99970.53;;;1.17;74.19
62402;BME280;48440;51.224;22.506;2023-02-16T02:55:30;99972.38;;;1.17;74.24
62402;BME280;48440;51.224;22.506;2023-02-16T02:58:19;99976.88;;;1.16;74.12
62402;BME280;48440;51.224;22.506;2023-02-16T03:01:05;99965.38;;;1.16;74.12
62402;BME280;48440;51.224;22.506;2023-02-16T03:03:43;99972.03;;;1.20;74.50
62402;BME280;48440;51.224;22.506;2023-02-16T03:06:21;99969.19;;;1.21;74.45
62402;BME280;48440;51.224;22.506;2023-02-16T03:08:53;99974.53;;;1.21;74.33
62402;BME280;48440;51.224;22.506;2023-02-16T03:11:25;99972.69;;;1.22;74.27
62402;BME280;48440;51.224;22.506;2023-02-16T03:14:50;99963.81;;;1.21;74.23
62402;BME280;48440;51.224;22.506;2023-02-16T03:17:19;99970.84;;;1.22;74.32
62402;BME280;48440;51.224;22.506;2023-02-16T03:20:07;99967.50;;;1.20;73.99
62402;BME280;48440;51.224;22.506;2023-02-16T03:22:52;99964.19;;;1.18;74.38
62402;BME280;48440;51.224;22.506;2023-02-16T03:25:37;99969.34;;;1.20;74.44
62402;BME280;48440;51.224;22.506;2023-02-16T03:28:25;99958.53;;;1.13;74.39
62402;BME280;48440;51.224;22.506;2023-02-16T03:31:14;99957.38;;;1.08;74.47
62402;BME280;48440;51.224;22.506;2023-02-16T03:33:41;99954.06;;;1.06;74.93
62402;BME280;48440;51.224;22.506;2023-02-16T03:36:08;99951.22;;;1.07;74.93
62402;BME280;48440;51.224;22.506;2023-02-16T03:38:33;99957.56;;;1.06;74.90
62402;BME280;48440;51.224;22.506;2023-02-16T03:41:00;99950.56;;;1.05;75.02
62402;BME280;48440;51.224;22.506;2023-02-16T03:43:27;99953.06;;;1.07;75.19
62402;BME280;48440;51.224;22.506;2023-02-16T03:45:53;99953.88;;;1.07;75.25
62402;BME280;48440;51.224;22.506;2023-02-16T03:48:19;99957.56;;;1.06;74.92
62402;BME280;48440;51.224;22.506;2023-02-16T03:50:45;99954.25;;;1.04;75.03
62402;BME280;48440;51.224;22.506;2023-02-16T03:53:10;99952.78;;;1.01;75.34
62402;BME280;48440;51.224;22.506;2023-02-16T03:55:44;99956.09;;;1.04;75.31
62402;BME280;48440;51.224;22.506;2023-02-16T03:58:12;99946.88;;;1.06;75.07
62402;BME280;48440;51.224;22.506;2023-02-16T04:00:38;99946.03;;;1.06;75.37
62402;BME280;48440;51.224;22.506;2023-02-16T04:03:05;99943.38;;;1.06;74.87
62402;BME280;48440;51.224;22.506;2023-02-16T04:05:31;99930.38;;;1.02;75.43
62402;BME280;48440;51.224;22.506;2023-02-16T04:07:57;99934.25;;;1.00;75.44
62402;BME280;48440;51.224;22.506;2023-02-16T04:10:23;99933.41;;;0.99;75.22
62402;BME280;48440;51.224;22.506;2023-02-16T04:12:49;99923.19;;;1.03;75.90
62402;BME280;48440;51.224;22.506;2023-02-16T04:15:18;99929.56;;;1.02;75.72
62402;BME280;48440;51.224;22.506;2023-02-16T04:17:44;99919.22;;;0.99;75.54
62402;BME280;48440;51.224;22.506;2023-02-16T04:20:13;99928.72;;;1.01;75.46
62402;BME280;48440;51.224;22.506;2023-02-16T04:22:39;99925.22;;;1.01;75.58
62402;BME280;48440;51.224;22.506;2023-02-16T04:25:05;99918.69;;;1.04;75.50
62402;BME280;48440;51.224;22.506;2023-02-16T04:27:31;99923.91;;;0.97;75.75
62402;BME280;48440;51.224;22.506;2023-02-16T04:29:56;99918.91;;;0.94;75.86
62402;BME280;48440;51.224;22.506;2023-02-16T04:32:22;99909.22;;;0.93;75.92
62402;BME280;48440;51.224;22.506;2023-02-16T04:34:47;99902.56;;;0.89;76.11
62402;BME280;48440;51.224;22.506;2023-02-16T04:37:13;99904.41;;;0.88;76.77
62402;BME280;48440;51.224;22.506;2023-02-16T04:39:39;99896.75;;;0.85;76.38
62402;BME280;48440;51.224;22.506;2023-02-16T04:42:04;99897.75;;;0.84;76.62
62402;BME280;48440;51.224;22.506;2023-02-16T04:44:30;99897.56;;;0.86;76.70
62402;BME280;48440;51.224;22.506;2023-02-16T04:46:55;99885.53;;;0.90;76.67
62402;BME280;48440;51.224;22.506;2023-02-16T04:49:21;99892.19;;;0.94;76.54
62402;BME280;48440;51.224;22.506;2023-02-16T04:51:46;99886.00;;;0.93;76.82
62402;BME280;48440;51.224;22.506;2023-02-16T04:54:12;99886.00;;;0.93;76.96
62402;BME280;48440;51.224;22.506;2023-02-16T04:56:38;99885.88;;;0.87;76.95
62402;BME280;48440;51.224;22.506;2023-02-16T04:59:03;99890.53;;;0.93;76.38
62402;BME280;48440;51.224;22.506;2023-02-16T05:01:29;99893.03;;;0.94;76.40
62402;BME280;48440;51.224;22.506;2023-02-16T05:03:55;99886.66;;;0.95;76.84
62402;BME280;48440;51.224;22.506;2023-02-16T05:06:20;99891.19;;;0.95;76.52
62402;BME280;48440;51.224;22.506;2023-02-16T05:08:46;99883.81;;;0.97;76.59
62402;BME280;48440;51.224;22.506;2023-02-16T05:11:11;99888.03;;;0.91;76.80
62402;BME280;48440;51.224;22.506;2023-02-16T05:13:56;99880.47;;;0.95;76.92
62402;BME280;48440;51.224;22.506;2023-02-16T05:16:41;99886.19;;;0.92;76.60
62402;BME280;48440;51.224;22.506;2023-02-16T05:19:08;99874.47;;;0.93;76.75
62402;BME280;48440;51.224;22.506;2023-02-16T05:21:33;99878.81;;;0.94;76.72
62402;BME280;48440;51.224;22.506;2023-02-16T05:24:05;99880.66;;;0.93;76.96
62402;BME280;48440;51.224;22.506;2023-02-16T05:26:32;99870.97;;;0.92;76.89
62402;BME280;48440;51.224;22.506;2023-02-16T05:28:58;99877.34;;;0.91;76.70
62402;BME280;48440;51.224;22.506;2023-02-16T05:31:24;99879.66;;;0.94;77.27
62402;BME280;48440;51.224;22.506;2023-02-16T05:33:50;99873.00;;;0.90;77.41
62402;BME280;48440;51.224;22.506;2023-02-16T05:36:15;99883.03;;;0.88;77.34
62402;BME280;48440;51.224;22.506;2023-02-16T05:38:44;99882.38;;;0.86;77.26
62402;BME280;48440;51.224;22.506;2023-02-16T05:41:10;99881.72;;;0.84;77.66
62402;BME280;48440;51.224;22.506;2023-02-16T05:43:36;99879.03;;;0.84;77.31
62402;BME280;48440;51.224;22.506;2023-02-16T05:46:08;99875.06;;;0.80;77.35
62402;BME280;48440;51.224;22.506;2023-02-16T05:48:36;99871.03;;;0.84;77.17
62402;BME280;48440;51.224;22.506;2023-02-16T05:51:02;99874.72;;;0.83;77.57
62402;BME280;48440;51.224;22.506;2023-02-16T05:53:27;99866.16;;;0.88;77.56
62402;BME280;48440;51.224;22.506;2023-02-16T05:55:52;99865.50;;;0.86;77.50
62402;BME280;48440;51.224;22.506;2023-02-16T05:58:18;99861.34;;;0.83;77.51
62402;BME280;48440;51.224;22.506;2023-02-16T06:00:43;99870.19;;;0.84;77.51
62402;BME280;48440;51.224;22.506;2023-02-16T06:03:09;99868.19;;;0.86;77.27
62402;BME280;48440;51.224;22.506;2023-02-16T06:05:34;99858.97;;;0.88;77.41
62402;BME280;48440;51.224;22.506;2023-02-16T06:08:00;99850.97;;;0.88;77.36
62402;BME280;48440;51.224;22.506;2023-02-16T06:10:25;99844.97;;;0.86;77.34
62402;BME280;48440;51.224;22.506;2023-02-16T06:12:51;99847.47;;;0.88;77.62
62402;BME280;48440;51.224;22.506;2023-02-16T06:15:17;99847.28;;;0.89;77.20
62402;BME280;48440;51.224;22.506;2023-02-16T06:17:42;99858.28;;;0.94;77.39
62402;BME280;48440;51.224;22.506;2023-02-16T06:20:09;99851.56;;;0.98;77.20
62402;BME280;48440;51.224;22.506;2023-02-16T06:22:37;99851.22;;;1.01;77.25
62402;BME280;48440;51.224;22.506;2023-02-16T06:25:03;99845.69;;;1.03;77.27
62402;BME280;48440;51.224;22.506;2023-02-16T06:27:29;99850.47;;;1.08;77.32
62402;BME280;48440;51.224;22.506;2023-02-16T06:29:54;99852.59;;;1.12;77.06
62402;BME280;48440;51.224;22.506;2023-02-16T06:32:20;99851.22;;;1.16;76.87
62402;BME280;48440;51.224;22.506;2023-02-16T06:34:45;99856.34;;;1.26;77.13
62402;BME280;48440;51.224;22.506;2023-02-16T06:37:10;99861.50;;;1.27;76.56
62402;BME280;48440;51.224;22.506;2023-02-16T06:39:42;99866.09;;;1.33;76.54
62402;BME280;48440;51.224;22.506;2023-02-16T06:42:11;99853.97;;;1.46;75.96
62402;BME280;48440;51.224;22.506;2023-02-16T06:44:36;99855.72;;;1.53;76.12
62402;BME280;48440;51.224;22.506;2023-02-16T06:47:03;99854.97;;;1.59;76.17
62402;BME280;48440;51.224;22.506;2023-02-16T06:49:31;99847.88;;;1.66;76.17
62402;BME280;48440;51.224;22.506;2023-02-16T06:51:57;99849.19;;;1.70;75.86
62402;BME280;48440;51.224;22.506;2023-02-16T06:54:22;99846.84;;;1.82;75.73
62402;BME280;48440;51.224;22.506;2023-02-16T06:56:48;99849.44;;;1.90;75.32
62402;BME280;48440;51.224;22.506;2023-02-16T06:59:13;99853.41;;;1.94;75.17
62402;BME280;48440;51.224;22.506;2023-02-16T07:01:39;99854.25;;;1.95;75.01
62402;BME280;48440;51.224;22.506;2023-02-16T07:04:04;99856.47;;;2.06;75.02
62402;BME280;48440;51.224;22.506;2023-02-16T07:06:30;99854.69;;;2.13;74.42
62402;BME280;48440;51.224;22.506;2023-02-16T07:08:56;99849.97;;;2.15;74.45
62402;BME280;48440;51.224;22.506;2023-02-16T07:11:22;99854.22;;;2.24;74.67
62402;BME280;48440;51.224;22.506;2023-02-16T07:13:47;99846.09;;;2.32;74.01
62402;BME280;48440;51.224;22.506;2023-02-16T07:16:13;99851.03;;;2.35;73.94
62402;BME280;48440;51.224;22.506;2023-02-16T07:18:39;99858.13;;;2.43;73.92
62402;BME280;48440;51.224;22.506;2023-02-16T07:21:05;99841.13;;;2.51;73.96
62402;BME280;48440;51.224;22.506;2023-02-16T07:23:32;99834.75;;;2.52;73.98
62402;BME280;48440;51.224;22.506;2023-02-16T07:25:57;99831.19;;;2.66;73.64
62402;BME280;48440;51.224;22.506;2023-02-16T07:28:23;99837.44;;;2.73;73.22
62402;BME280;48440;51.224;22.506;2023-02-16T07:30:52;99832.41;;;2.85;72.89
62402;BME280;48440;51.224;22.506;2023-02-16T07:33:18;99827.53;;;2.95;72.03
62402;BME280;48440;51.224;22.506;2023-02-16T07:35:48;99828.50;;;2.87;72.27
62402;BME280;48440;51.224;22.506;2023-02-16T07:38:14;99821.25;;;2.81;72.27
62402;BME280;48440;51.224;22.506;2023-02-16T07:40:39;99807.16;;;3.00;72.24
62402;BME280;48440;51.224;22.506;2023-02-16T07:43:06;99815.56;;;3.19;71.63
62402;BME280;48440;51.224;22.506;2023-02-16T07:45:32;99810.94;;;3.68;70.67
62402;BME280;48440;51.224;22.506;2023-02-16T07:47:58;99815.03;;;4.60;67.77
62402;BME280;48440;51.224;22.506;2023-02-16T07:50:24;99822.72;;;5.55;63.61
62402;BME280;48440;51.224;22.506;2023-02-16T07:52:50;99818.91;;;6.47;60.76
62402;BME280;48440;51.224;22.506;2023-02-16T07:55:16;99817.91;;;7.04;58.79
62402;BME280;48440;51.224;22.506;2023-02-16T07:57:41;99817.69;;;7.31;57.91
62402;BME280;48440;51.224;22.506;2023-02-16T08:00:08;99822.69;;;7.95;56.03
62402;BME280;48440;51.224;22.506;2023-02-16T08:02:33;99813.28;;;8.34;54.92
62402;BME280;48440;51.224;22.506;2023-02-16T08:04:59;99812.44;;;8.52;54.23
62402;BME280;48440;51.224;22.506;2023-02-16T08:07:25;99815.22;;;8.27;54.80
62402;BME280;48440;51.224;22.506;2023-02-16T08:09:51;99805.38;;;8.14;54.87
62402;BME280;48440;51.224;22.506;2023-02-16T08:12:17;99794.00;;;7.94;55.68
62402;BME280;48440;51.224;22.506;2023-02-16T08:14:44;99793.47;;;7.86;55.13
62402;BME280;48440;51.224;22.506;2023-02-16T08:17:11;99799.31;;;7.82;55.62
62402;BME280;48440;51.224;22.506;2023-02-16T08:19:37;99797.72;;;7.57;56.17
62402;BME280;48440;51.224;22.506;2023-02-16T08:22:04;99798.69;;;7.44;57.36
62402;BME280;48440;51.224;22.506;2023-02-16T08:24:30;99795.59;;;7.40;57.03
62402;BME280;48440;51.224;22.506;2023-02-16T08:26:56;99792.44;;;7.25;57.11
62402;BME280;48440;51.224;22.506;2023-02-16T08:29:23;99789.38;;;7.15;57.66
62402;BME280;48440;51.224;22.506;2023-02-16T08:31:49;99789.03;;;7.30;57.50
62402;BME280;48440;51.224;22.506;2023-02-16T08:34:16;99781.72;;;7.55;57.31
62402;BME280;48440;51.224;22.506;2023-02-16T08:36:43;99782.94;;;8.14;55.26
62402;BME280;48440;51.224;22.506;2023-02-16T08:39:15;99785.94;;;8.84;53.38
62402;BME280;48440;51.224;22.506;2023-02-16T08:41:41;99783.19;;;9.37;51.76
62402;BME280;48440;51.224;22.506;2023-02-16T08:44:08;99783.19;;;9.84;50.38
62402;BME280;48440;51.224;22.506;2023-02-16T08:46:37;99782.25;;;10.18;49.78
62402;BME280;48440;51.224;22.506;2023-02-16T08:49:03;99778.28;;;10.49;48.92
62402;BME280;48440;51.224;22.506;2023-02-16T08:51:32;99775.91;;;10.53;48.61
62402;BME280;48440;51.224;22.506;2023-02-16T08:54:02;99780.84;;;11.01;47.14
62402;BME280;48440;51.224;22.506;2023-02-16T08:56:28;99776.31;;;11.07;46.67
62402;BME280;48440;51.224;22.506;2023-02-16T08:58:55;99771.53;;;10.97;47.11
62402;BME280;48440;51.224;22.506;2023-02-16T09:01:20;99766.09;;;10.80;47.22
62402;BME280;48440;51.224;22.506;2023-02-16T09:03:46;99768.78;;;10.64;47.72
62402;BME280;48440;51.224;22.506;2023-02-16T09:06:14;99766.72;;;10.71;47.60
62402;BME280;48440;51.224;22.506;2023-02-16T09:08:40;99753.72;;;10.56;48.49
62402;BME280;48440;51.224;22.506;2023-02-16T09:11:13;99762.06;;;10.38;48.44
62402;BME280;48440;51.224;22.506;2023-02-16T09:13:41;99758.81;;;10.52;47.84
62402;BME280;48440;51.224;22.506;2023-02-16T09:16:10;99759.25;;;10.33;48.48
62402;BME280;48440;51.224;22.506;2023-02-16T09:18:36;99756.69;;;10.14;48.72
62402;BME280;48440;51.224;22.506;2023-02-16T09:21:04;99758.22;;;10.22;48.65
62402;BME280;48440;51.224;22.506;2023-02-16T09:23:32;99765.31;;;10.68;47.53
62402;BME280;48440;51.224;22.506;2023-02-16T09:26:00;99756.78;;;10.76;46.82
62402;BME280;48440;51.224;22.506;2023-02-16T09:28:36;99760.28;;;11.05;47.06
62402;BME280;48440;51.224;22.506;2023-02-16T09:31:29;99761.50;;;10.81;47.76
62402;BME280;48440;51.224;22.506;2023-02-16T09:33:58;99762.41;;;10.86;47.00
62402;BME280;48440;51.224;22.506;2023-02-16T09:36:24;99764.94;;;10.76;48.11
62402;BME280;48440;51.224;22.506;2023-02-16T09:38:52;99762.31;;;10.81;46.88
62402;BME280;48440;51.224;22.506;2023-02-16T09:46:28;99762.97;;;10.43;47.93
62402;BME280;48440;51.224;22.506;2023-02-16T09:48:54;99771.59;;;10.40;48.91
62402;BME280;48440;51.224;22.506;2023-02-16T09:51:35;99765.41;;;10.28;49.26
62402;BME280;48440;51.224;22.506;2023-02-16T09:54:41;99769.88;;;10.34;48.71
62402;BME280;48440;51.224;22.506;2023-02-16T10:08:01;99763.00;;;10.88;47.70
62402;BME280;48440;51.224;22.506;2023-02-16T10:13:18;99756.41;;;10.84;47.81
62402;BME280;48440;51.224;22.506;2023-02-16T10:15:56;99750.66;;;11.14;46.36
62402;BME280;48440;51.224;22.506;2023-02-16T10:18:36;99754.31;;;10.92;47.02
62402;BME280;48440;51.224;22.506;2023-02-16T10:21:10;99746.22;;;11.08;47.06
62402;BME280;48440;51.224;22.506;2023-02-16T10:23:47;99747.34;;;11.29;46.73
62402;BME280;48440;51.224;22.506;2023-02-16T10:29:02;99738.69;;;11.32;45.85
62402;BME280;48440;51.224;22.506;2023-02-16T10:31:41;99737.22;;;11.08;46.01
62402;BME280;48440;51.224;22.506;2023-02-16T10:42:53;99730.88;;;11.19;45.93
62402;BME280;48440;51.224;22.506;2023-02-16T10:47:56;99731.00;;;11.46;45.87
62402;BME280;48440;51.224;22.506;2023-02-16T10:50:39;99736.31;;;11.36;46.27
62402;BME280;48440;51.224;22.506;2023-02-16T10:53:14;99731.13;;;11.17;47.75
62402;BME280;48440;51.224;22.506;2023-02-16T10:55:41;99727.69;;;11.05;45.03
62402;BME280;48440;51.224;22.506;2023-02-16T10:58:24;99723.38;;;10.59;45.95
62402;BME280;48440;51.224;22.506;2023-02-16T11:01:17;99729.31;;;10.28;47.54
62402;BME280;48440;51.224;22.506;2023-02-16T11:03:48;99715.72;;;10.39;47.88
62402;BME280;48440;51.224;22.506;2023-02-16T11:06:22;99720.00;;;10.69;47.90
62402;BME280;48440;51.224;22.506;2023-02-16T11:08:54;99714.00;;;10.67;47.42
62402;BME280;48440;51.224;22.506;2023-02-16T11:11:34;99707.94;;;10.76;46.84
62402;BME280;48440;51.224;22.506;2023-02-16T11:14:24;99706.69;;;10.67;47.58
62402;BME280;48440;51.224;22.506;2023-02-16T11:17:12;99707.09;;;10.76;48.90
62402;BME280;48440;51.224;22.506;2023-02-16T11:19:46;99703.47;;;10.70;48.30
62402;BME280;48440;51.224;22.506;2023-02-16T11:22:36;99701.06;;;10.40;49.38
62402;BME280;48440;51.224;22.506;2023-02-16T11:25:34;99700.88;;;10.30;49.48
62402;BME280;48440;51.224;22.506;2023-02-16T11:28:00;99694.22;;;10.09;50.17
62402;BME280;48440;51.224;22.506;2023-02-16T11:30:29;99699.19;;;10.01;50.56
62402;BME280;48440;51.224;22.506;2023-02-16T11:32:58;99688.38;;;9.89;51.07
62402;BME280;48440;51.224;22.506;2023-02-16T11:35:25;99698.44;;;9.77;51.77
62402;BME280;48440;51.224;22.506;2023-02-16T11:37:51;99689.97;;;9.85;51.62
62402;BME280;48440;51.224;22.506;2023-02-16T11:40:21;99688.53;;;9.82;51.58
62402;BME280;48440;51.224;22.506;2023-02-16T11:42:52;99686.34;;;9.68;52.29
62402;BME280;48440;51.224;22.506;2023-02-16T11:45:34;99688.50;;;9.54;52.04
62402;BME280;48440;51.224;22.506;2023-02-16T11:48:05;99681.91;;;9.38;52.78
62402;BME280;48440;51.224;22.506;2023-02-16T11:50:36;99674.63;;;9.27;52.72
62402;BME280;48440;51.224;22.506;2023-02-16T11:55:35;99669.34;;;9.32;53.05
62402;BME280;48440;51.224;22.506;2023-02-16T11:58:26;99662.97;;;9.15;53.52
62402;BME280;48440;51.224;22.506;2023-02-16T12:01:02;99670.38;;;8.84;53.18
62402;BME280;48440;51.224;22.506;2023-02-16T12:09:15;99669.34;;;8.32;54.85
62402;BME280;48440;51.224;22.506;2023-02-16T12:11:57;99666.88;;;8.31;55.10
62402;BME280;48440;51.224;22.506;2023-02-16T12:14:42;99666.38;;;8.22;54.69
62402;BME280;48440;51.224;22.506;2023-02-16T12:20:40;99656.25;;;8.17;55.07
62402;BME280;48440;51.224;22.506;2023-02-16T12:25:45;99653.03;;;8.09;55.59
62402;BME280;48440;51.224;22.506;2023-02-16T12:28:41;99644.75;;;7.92;55.33
62402;BME280;48440;51.224;22.506;2023-02-16T12:39:02;99649.47;;;7.67;56.56
62402;BME280;48440;51.224;22.506;2023-02-16T12:41:43;99648.41;;;7.68;56.64
62402;BME280;48440;51.224;22.506;2023-02-16T12:44:18;99650.75;;;7.64;57.54
62402;BME280;48440;51.224;22.506;2023-02-16T12:46:49;99639.72;;;7.66;57.73
62402;BME280;48440;51.224;22.506;2023-02-16T12:49:25;99636.41;;;7.64;57.54
62402;BME280;48440;51.224;22.506;2023-02-16T12:54:29;99618.78;;;7.61;57.85
62402;BME280;48440;51.224;22.506;2023-02-16T12:57:03;99621.09;;;7.58;58.23
62402;BME280;48440;51.224;22.506;2023-02-16T12:59:40;99622.13;;;7.45;57.91
62402;BME280;48440;51.224;22.506;2023-02-16T13:02:35;99615.50;;;7.41;57.80
62402;BME280;48440;51.224;22.506;2023-02-16T13:05:20;99624.66;;;7.40;57.88
62402;BME280;48440;51.224;22.506;2023-02-16T13:07:50;99613.94;;;7.33;57.89
62402;BME280;48440;51.224;22.506;2023-02-16T13:12:56;99607.09;;;7.31;58.99
62402;BME280;48440;51.224;22.506;2023-02-16T13:15:50;99601.88;;;7.36;59.03
62402;BME280;48440;51.224;22.506;2023-02-16T13:18:31;99602.25;;;7.39;58.65
62402;BME280;48440;51.224;22.506;2023-02-16T13:46:31;99592.03;;;7.05;59.73
62402;BME280;48440;51.224;22.506;2023-02-16T13:48:58;99585.47;;;7.01;59.29
62402;BME280;48440;51.224;22.506;2023-02-16T13:51:27;99592.16;;;6.98;59.27
62402;BME280;48440;51.224;22.506;2023-02-16T14:00:44;99578.88;;;6.97;59.92
62402;BME280;48440;51.224;22.506;2023-02-16T14:03:35;99580.16;;;6.94;60.05
62402;BME280;48440;51.224;22.506;2023-02-16T14:08:32;99589.50;;;6.92;60.14
62402;BME280;48440;51.224;22.506;2023-02-16T14:14:23;99594.06;;;6.91;60.82
62402;BME280;48440;51.224;22.506;2023-02-16T14:16:56;99589.34;;;6.87;60.68
62402;BME280;48440;51.224;22.506;2023-02-16T14:20:23;99590.63;;;6.84;60.88
62402;BME280;48440;51.224;22.506;2023-02-16T14:22:54;99591.88;;;6.81;61.38
62402;BME280;48440;51.224;22.506;2023-02-16T14:25:33;99590.00;;;6.82;61.32
62402;BME280;48440;51.224;22.506;2023-02-16T14:34:39;99586.09;;;6.78;61.83
62402;BME280;48440;51.224;22.506;2023-02-16T14:43:51;99578.09;;;6.71;62.76
62402;BME280;48440;51.224;22.506;2023-02-16T14:46:32;99581.84;;;6.70;62.55
62402;BME280;48440;51.224;22.506;2023-02-16T14:49:22;99578.53;;;6.68;63.00
62402;BME280;48440;51.224;22.506;2023-02-16T15:17:54;99570.75;;;6.35;64.73
62402;BME280;48440;51.224;22.506;2023-02-16T15:20:44;99570.81;;;6.29;64.72
62402;BME280;48440;51.224;22.506;2023-02-16T15:23:36;99570.41;;;6.25;64.98
62402;BME280;48440;51.224;22.506;2023-02-16T15:26:31;99570.50;;;6.19;65.08
62402;BME280;48440;51.224;22.506;2023-02-16T15:30:00;99567.41;;;6.15;65.33
62402;BME280;48440;51.224;22.506;2023-02-16T15:33:05;99573.25;;;6.12;65.36
62402;BME280;48440;51.224;22.506;2023-02-16T15:39:33;99572.03;;;6.08;65.33
62402;BME280;48440;51.224;22.506;2023-02-16T15:48:48;99576.63;;;6.01;65.69
62402;BME280;48440;51.224;22.506;2023-02-16T15:51:40;99574.38;;;5.98;65.78
62402;BME280;48440;51.224;22.506;2023-02-16T15:54:26;99568.63;;;5.94;65.63
62402;BME280;48440;51.224;22.506;2023-02-16T16:00:40;99567.41;;;5.90;65.59
62402;BME280;48440;51.224;22.506;2023-02-16T16:03:21;99571.31;;;5.88;65.49
62402;BME280;48440;51.224;22.506;2023-02-16T16:05:58;99574.66;;;5.83;65.71
62402;BME280;48440;51.224;22.506;2023-02-16T16:08:26;99576.53;;;5.83;65.97
62402;BME280;48440;51.224;22.506;2023-02-16T16:10:53;99571.34;;;5.81;65.82
62402;BME280;48440;51.224;22.506;2023-02-16T16:13:23;99570.53;;;5.80;65.30
62402;BME280;48440;51.224;22.506;2023-02-16T16:15:50;99576.13;;;5.79;65.53
62402;BME280;48440;51.224;22.506;2023-02-16T16:18:50;99575.72;;;5.75;65.81
62402;BME280;48440;51.224;22.506;2023-02-16T16:21:25;99564.34;;;5.73;65.42
62402;BME280;48440;51.224;22.506;2023-02-16T16:23:58;99573.94;;;5.69;65.44
62402;BME280;48440;51.224;22.506;2023-02-16T16:26:25;99576.66;;;5.63;65.75
62402;BME280;48440;51.224;22.506;2023-02-16T16:28:54;99571.47;;;5.61;65.89